Latest Weather Observations for Bushy Park

IDT60801

Issued at 3:02 pm EST Saturday 4 July 2015 (issued every 30 minutes, with the page automatically refreshed every 10 minutes)

About weather observations | Map of weather stations | Latest weather observations for TAS | Other Formats
Station Details ID: 095003 Name: BUSHY PARK (BUSHY PARK ESTATES) Lat: -42.71 Lon: 146.90 Height: 27.0 m
Data from the previous 72 hours. | See also: Recent months at Bushy Park
Date/Time
EST
Temp
°C
App
Temp
°C
Dew
Point
Rel
Hum
%
Delta-T
°C
Wind Press
QNH
hPa
Press
MSL
hPa
Rain
since 9 am
mm
Dir
 
Spd
km/h
Gust
km/h
Spd
kts
Gust
kts
04/03:00pm 11.8 6.3 0.6 46 4.6 W 19 26 10 14 - - 0.0
04/02:30pm 12.0 5.9 0.3 44 4.8 W 22 35 12 19 - - 0.0
04/02:00pm 12.6 6.5 0.2 42 5.1 W 22 35 12 19 - - 0.0
04/01:30pm 11.8 6.2 1.5 49 4.4 WSW 20 41 11 22 - - 0.0
04/01:00pm 12.8 7.0 2.1 48 4.6 WNW 22 39 12 21 - - 0.0
04/12:30pm 13.3 6.2 1.6 45 5.0 NNW 28 48 15 26 - - 0.0
04/12:19pm 13.3 6.3 1.9 46 4.9 NW 28 48 15 26 - - 0.0
04/12:00pm 12.4 7.1 2.1 49 4.4 W 19 32 10 17 - - 0.0
04/11:30am 14.0 10.2 3.8 50 4.6 WSW 13 17 7 9 - - 0.0
04/11:00am 13.9 10.0 3.3 49 4.8 W 13 43 7 23 - - 0.0
04/10:30am 14.3 9.5 4.4 51 4.6 WSW 19 30 10 16 - - 0.0
04/10:00am 13.9 8.9 4.4 52 4.4 NW 20 33 11 18 - - 0.0
04/09:30am 12.7 8.8 5.2 60 3.5 W 15 37 8 20 - - 0.0
04/09:00am 12.3 7.0 5.0 61 3.4 NW 22 39 12 21 - - 1.6
04/08:30am 11.2 8.1 7.3 77 1.9 NW 13 19 7 10 - - 1.6
04/08:00am 10.8 7.8 7.9 82 1.4 NNW 13 19 7 10 - - 1.6
04/07:30am 10.1 8.2 8.9 92 0.6 WNW 9 13 5 7 - - 1.4
04/07:00am 10.2 7.5 8.8 91 0.7 WSW 13 17 7 9 - - 1.4
04/06:30am 10.5 6.5 8.3 86 1.1 WNW 19 35 10 19 - - 1.2
04/06:00am 8.8 5.9 8.2 96 0.3 S 13 15 7 8 - - 1.0
04/05:30am 8.6 5.6 7.8 95 0.4 S 13 15 7 8 - - 1.0
04/05:00am 8.4 5.3 7.3 93 0.5 W 13 20 7 11 - - 0.6
04/04:30am 8.4 6.1 7.3 93 0.5 NNE 9 17 5 9 - - 0.2
04/04:00am 8.5 5.7 6.8 89 0.8 SSW 11 17 6 9 - - 0.2
04/03:30am 8.8 6.6 6.0 82 1.3 ENE 7 13 4 7 - - 0.0
04/03:00am 8.6 5.4 5.3 80 1.5 NNE 11 17 6 9 - - 0.0
04/02:30am 8.8 5.6 5.0 77 1.7 N 11 17 6 9 - - 0.0
04/02:00am 8.7 6.3 4.4 74 1.9 SW 6 9 3 5 - - 0.0
04/01:30am 9.1 5.9 4.9 75 1.9 N 11 19 6 10 - - 0.0
04/01:00am 9.4 5.6 4.0 69 2.4 N 13 19 7 10 - - 0.0
04/12:30am 9.3 5.5 3.9 69 2.4 N 13 17 7 9 - - 0.0
04/12:00am 9.2 2.5 3.5 67 2.5 N 28 33 15 18 - - 0.0
 
Date/Time
EST
Temp
°C
App
Temp
°C
Dew
Point
Rel
Hum
%
Delta-T
°C
Wind Press
QNH
hPa
Press
MSL
hPa
Rain
since 9 am
mm
Dir
 
Spd
km/h
Gust
km/h
Spd
kts
Gust
kts
03/11:30pm 9.2 1.7 3.2 66 2.6 N 32 39 17 21 - - 0.0
03/11:00pm 8.7 2.0 3.4 69 2.3 N 28 37 15 20 - - 0.0
03/10:30pm 7.9 1.5 3.0 71 2.1 N 26 33 14 18 - - 0.0
03/10:00pm 7.6 3.2 2.6 70 2.1 NNW 15 26 8 14 - - 0.0
03/09:30pm 7.3 2.5 2.8 73 1.9 N 17 22 9 12 - - 0.0
03/09:00pm 7.2 2.4 2.7 73 1.9 N 17 20 9 11 - - 0.0
03/08:30pm 7.2 2.7 2.4 71 2.0 NNW 15 20 8 11 - - 0.0
03/08:00pm 8.2 3.0 2.3 66 2.5 N 19 28 10 15 - - 0.0
03/07:30pm 8.4 2.6 2.5 66 2.5 N 22 32 12 17 - - 0.0
03/07:00pm 8.5 2.7 2.4 65 2.6 NNW 22 32 12 17 - - 0.0
03/06:30pm 7.4 3.8 3.2 75 1.8 N 11 15 6 8 - - 0.0
03/06:00pm 8.1 4.5 3.0 70 2.2 N 11 15 6 8 - - 0.0
03/05:30pm 8.7 4.0 2.9 67 2.5 N 17 22 9 12 - - 0.0
03/05:00pm 8.7 5.3 4.2 73 2.0 N 11 11 6 6 - - 0.0
03/04:30pm 9.7 5.6 2.5 61 3.1 NW 13 17 7 9 - - 0.0
03/04:00pm 10.6 7.5 3.6 62 3.1 NNW 9 11 5 6 - - 0.0
03/03:30pm 11.9 7.9 2.8 53 4.0 N 13 19 7 10 - - 0.0
03/03:00pm 12.3 8.6 2.2 50 4.4 NNW 11 19 6 10 - - 0.0
03/02:30pm 12.7 8.3 2.8 51 4.4 NNW 15 19 8 10 - - 0.0
03/02:00pm 12.1 7.3 2.5 52 4.2 NW 17 28 9 15 - - 0.0
03/01:30pm 12.3 8.2 2.2 50 4.4 W 13 24 7 13 - - 0.0
03/01:00pm 12.3 7.9 2.8 52 4.2 N 15 19 8 10 - - 0.0
03/12:30pm 12.0 6.8 2.7 53 4.1 N 19 26 10 14 - - 0.0
03/12:00pm 11.7 6.0 2.9 55 3.8 N 22 30 12 16 - - 0.0
03/11:30am 10.9 5.4 2.1 54 3.7 N 20 28 11 15 - - 0.0
03/11:00am 10.0 4.5 2.0 57 3.4 N 20 26 11 14 - - 0.0
03/10:30am 9.6 5.6 2.6 61 3.0 N 13 20 7 11 - - 0.0
03/10:00am 7.3 4.0 2.3 70 2.1 S 9 13 5 7 - - 0.0
03/09:30am 6.0 2.9 1.6 73 1.8 N 7 15 4 8 - - 0.0
03/09:00am 2.3 -1.1 2.0 98 0.1 NNW 9 13 5 7 - - 0.2
03/08:30am 1.0 -2.3 -0.1 92 0.4 WNW 7 11 4 6 - - 0.2
03/08:00am 1.0 -1.0 -0.1 92 0.4 CALM 0 0 0 0 - - 0.2
03/07:30am 0.7 - - - - SW 2 7 1 4 - - 0.2
03/07:00am 0.8 -1.6 -0.3 92 0.4 NE 2 7 1 4 - - 0.2
03/06:30am 1.2 -1.6 -0.4 89 0.6 WNW 4 6 2 3 - - 0.2
03/06:00am 1.3 -2.0 -0.1 90 0.5 SE 7 9 4 5 - - 0.2
03/05:30am 1.9 -1.7 0.3 89 0.6 NNW 9 11 5 6 - - 0.2
03/05:00am 2.7 -0.6 0.3 84 0.9 N 7 9 4 5 - - 0.2
03/04:30am 2.5 -0.8 0.4 86 0.8 E 7 13 4 7 - - 0.2
03/04:00am 2.9 -0.7 0.5 84 0.9 SW 9 13 5 7 - - 0.2
03/03:30am 4.4 0.8 0.8 77 1.4 NNE 9 13 5 7 - - 0.2
03/03:00am 6.1 1.8 0.8 69 2.1 NW 13 19 7 10 - - 0.2
03/02:30am 5.5 1.2 0.7 71 1.9 NNW 13 17 7 9 - - 0.2
03/02:00am 6.8 2.1 0.8 65 2.4 NW 15 26 8 14 - - 0.2
03/01:30am 6.3 1.2 0.8 68 2.2 NNW 17 28 9 15 - - 0.2
03/01:00am 5.5 2.6 1.5 75 1.6 N 6 11 3 6 - - 0.2
03/12:30am 5.7 1.9 1.5 74 1.7 N 11 15 6 8 - - 0.2
03/12:00am 4.1 -0.9 1.3 82 1.1 NNE 17 19 9 10 - - 0.2
 
Date/Time
EST
Temp
°C
App
Temp
°C
Dew
Point
Rel
Hum
%
Delta-T
°C
Wind Press
QNH
hPa
Press
MSL
hPa
Rain
since 9 am
mm
Dir
 
Spd
km/h
Gust
km/h
Spd
kts
Gust
kts
02/11:30pm 4.2 1.2 0.6 77 1.4 NNE 6 11 3 6 - - 0.2
02/11:00pm 3.8 0.2 0.7 80 1.2 N 9 13 5 7 - - 0.2
02/10:30pm 3.3 0.7 0.7 83 1.0 NW 4 9 2 5 - - 0.2
02/10:00pm 3.4 1.5 0.8 83 1.0 CALM 0 7 0 4 - - 0.2
02/09:30pm 4.0 0.4 0.9 80 1.2 S 9 15 5 8 - - 0.2
02/09:00pm 3.8 0.3 1.0 82 1.1 N 9 11 5 6 - - 0.2
02/08:30pm 4.9 1.9 1.1 76 1.5 NNE 6 11 3 6 - - 0.2
02/08:00pm 4.9 2.0 1.4 78 1.4 N 6 9 3 5 - - 0.2
02/07:30pm 4.3 0.9 1.8 84 1.0 E 9 13 5 7 - - 0.2
02/07:00pm 4.7 1.8 1.2 78 1.4 N 6 13 3 7 - - 0.2
02/06:30pm 5.0 2.0 0.9 75 1.6 NNW 6 11 3 6 - - 0.2
02/06:00pm 5.3 0.9 0.1 69 2.0 WSW 13 24 7 13 - - 0.2
02/05:30pm 6.1 0.6 0.8 69 2.1 SW 19 28 10 15 - - 0.2
02/05:00pm 6.1 1.0 0.5 67 2.2 W 17 39 9 21 - - 0.2
02/04:30pm 6.5 2.1 0.1 63 2.5 W 13 24 7 13 - - 0.2
02/04:00pm 7.2 1.5 0.7 63 2.6 NNW 20 28 11 15 - - 0.2
02/03:30pm 8.1 5.1 1.9 65 2.6 S 7 13 4 7 - - 0.2
02/03:00pm 8.5 2.3 -0.6 53 3.5 W 22 33 12 18 - - 0.2
02/02:30pm 8.6 4.7 1.3 60 3.0 W 11 28 6 15 - - 0.2
02/02:00pm 8.8 4.4 0.4 55 3.4 SW 13 28 7 15 - - 0.2
02/01:30pm 8.0 3.0 1.2 62 2.8 WSW 17 32 9 17 - - 0.2
02/01:00pm 7.4 2.5 2.1 69 2.2 SW 17 28 9 15 - - 0.2
02/12:30pm 8.2 3.2 1.4 62 2.8 SSE 17 26 9 14 - - 0.2
02/12:00pm 8.5 3.9 1.8 63 2.8 NNE 15 26 8 14 - - 0.2
02/11:30am 9.0 6.2 3.0 66 2.6 ENE 7 11 4 6 - - 0.2
02/11:00am 7.4 3.8 2.7 72 2.0 WSW 11 17 6 9 - - 0.2
02/10:30am 7.3 4.1 3.1 75 1.8 W 9 15 5 8 - - 0.2
02/10:00am 7.1 3.6 3.6 78 1.5 NNW 11 15 6 8 - - 0.2
02/09:30am 6.7 3.3 3.9 82 1.2 N 11 17 6 9 - - 0.2
02/09:00am 4.0 1.8 3.3 95 0.3 NNE 4 9 2 5 - - 8.6
02/08:30am 3.0 0.2 2.2 94 0.3 E 6 13 3 7 - - 8.6
02/08:00am 3.3 0.0 2.3 93 0.4 N 9 13 5 7 - - 8.6
02/07:30am 3.0 -0.4 2.0 93 0.4 SE 9 11 5 6 - - 8.2
02/07:00am 3.0 -0.4 2.0 93 0.4 N 9 17 5 9 - - 8.0
02/06:30am 3.6 0.9 2.4 92 0.5 NNE 6 9 3 5 - - 8.0
02/06:00am 4.0 0.2 1.7 85 0.9 W 11 19 6 10 - - 7.8
02/05:30am 4.1 -0.1 1.6 84 1.0 NNW 13 15 7 8 - - 7.8
02/05:00am 5.0 -1.2 2.0 81 1.2 N 24 32 13 17 - - 7.6
02/04:30am 5.0 1.0 2.6 84 1.0 N 13 19 7 10 - - 7.6
02/04:00am 4.7 -0.6 1.7 81 1.2 N 19 33 10 18 - - 7.2
02/03:30am 5.1 0.5 1.6 78 1.4 NNW 15 28 8 15 - - 7.2
02/03:00am 6.3 0.9 1.1 69 2.1 W 19 41 10 22 - - 6.6
02/02:30am 5.1 0.9 1.9 80 1.3 NNW 13 20 7 11 - - 6.4
02/02:00am 6.0 1.5 2.4 78 1.5 WNW 15 28 8 15 - - 6.4
02/01:30am 6.9 1.5 2.3 72 1.9 WSW 20 41 11 22 - - 6.0
02/01:00am 7.4 1.9 2.1 69 2.2 W 20 39 11 21 - - 5.6
02/12:30am 7.1 1.4 2.6 73 1.9 NW 22 33 12 18 - - 5.6
02/12:00am 6.9 2.2 2.9 76 1.7 WNW 17 28 9 15 - - 5.4
 
Date/Time
EST
Temp
°C
App
Temp
°C
Dew
Point
Rel
Hum
%
Delta-T
°C
Wind Press
QNH
hPa
Press
MSL
hPa
Rain
since 9 am
mm
Dir
 
Spd
km/h
Gust
km/h
Spd
kts
Gust
kts
01/11:30pm 6.5 3.0 3.4 80 1.3 NNW 11 35 6 19 - - 5.2
01/11:00pm 5.9 1.8 4.5 91 0.6 N 15 20 8 11 - - 5.2
01/10:30pm 6.2 1.8 4.6 89 0.7 NNW 17 24 9 13 - - 4.0
01/10:00pm 6.3 1.4 4.9 91 0.6 N 20 37 11 20 - - 3.0
01/09:30pm 7.0 -0.7 3.5 78 1.5 N 33 43 18 23 - - 1.4
01/09:00pm 7.1 1.4 2.8 74 1.8 N 22 33 12 18 - - 1.4
01/08:45pm 7.0 -0.6 2.7 74 1.8 NNW 32 50 17 27 - - 1.4
01/08:43pm 7.1 -0.7 2.6 73 1.9 NNW 33 50 18 27 - - 1.4
01/08:30pm 6.7 1.2 3.9 82 1.2 NNE 22 30 12 16 - - 1.4
01/08:00pm 7.6 2.4 3.7 76 1.7 W 20 35 11 19 - - 1.0
01/07:32pm 11.4 4.9 6.4 71 2.4 WSW 30 50 16 27 - - 0.2
01/07:30pm 12.0 6.9 5.9 66 2.9 WNW 22 43 12 23 - - 0.0
01/07:01pm 11.9 5.2 3.9 58 3.6 N 28 46 15 25 - - 0.0
01/07:00pm 11.8 4.8 4.1 59 3.5 N 30 46 16 25 - - 0.0
01/06:30pm 11.9 2.4 3.7 57 3.7 N 43 54 23 29 - - 0.0
01/06:00pm 11.8 2.9 3.3 56 3.8 N 39 54 21 29 - - 0.0
01/05:42pm 11.6 2.7 3.3 56 3.7 N 39 59 21 32 - - 0.0
01/05:30pm 11.8 3.3 3.0 55 3.9 N 37 52 20 28 - - 0.0
01/05:00pm 11.6 2.5 4.1 60 3.4 N 41 63 22 34 - - 0.0
01/04:30pm 12.2 1.2 3.0 53 4.0 NNW 50 76 27 41 - - 0.0
01/04:00pm 12.1 1.6 3.7 56 3.8 NNW 48 67 26 36 - - 0.0
01/03:30pm 11.7 2.9 5.5 66 2.9 NNW 41 63 22 34 - - 0.0

Other Formats:

Comma delimited format used in spreadsheet applications
http://www.bom.gov.au/fwo/IDT60801/IDT60801.94964.axf

JavaScript Object Notation format (JSON) in row-major order
http://www.bom.gov.au/fwo/IDT60801/IDT60801.94964.json